.
WxDataArchive / Data Records for 2012-08-29
2012-08-28 August 2012 2012-08-30

Data Records for Wednesday, 29 August 2012

Time	Temp	Chill	HIndex	Humid	Dewpt	 Wind 	HiWind	WindDir	Rain 	Barom 
-----	----	-----	------	-----	-----	------	------	-------	-----	----- 
00:00	64.3	64.3	64.3	86	60.0	0	0	---	0.00	30.030 
00:05	64.0	64.0	64.0	86	59.7	0	0	---	0.00	30.030 
00:10	63.9	63.9	63.9	86	59.6	0	0	---	0.00	30.030 
00:15	63.7	63.7	63.7	87	59.8	0	0	---	0.00	30.031 
00:20	63.7	63.7	63.7	87	59.8	0	0	---	0.00	30.031 
00:25	63.5	63.5	63.5	87	59.6	0	0	---	0.00	30.031 
00:30	63.4	63.4	63.4	88	59.8	0	0	---	0.00	30.032 
00:35	63.2	63.2	63.2	88	59.6	0	0	---	0.00	30.032 
00:40	63.1	63.1	63.1	88	59.5	0	0	---	0.00	30.032 
00:45	63.1	63.1	63.1	88	59.5	0	0	---	0.00	30.033 
00:50	62.9	62.9	62.9	88	59.3	0	0	---	0.00	30.033 
00:55	62.7	62.7	62.7	88	59.1	0	0	---	0.00	30.033 
01:00	62.6	62.6	62.6	89	59.3	0	0	---	0.00	30.036 
01:05	62.4	62.4	62.4	89	59.1	0	0	---	0.00	30.036 
01:10	62.4	62.4	62.4	89	59.1	0	0	---	0.00	30.036 
01:15	62.3	62.3	62.3	89	59.0	0	0	---	0.00	30.044 
01:20	62.1	62.1	62.1	90	59.1	0	0	---	0.00	30.044 
01:25	62.1	62.1	62.1	90	59.1	0	0	---	0.00	30.044 
01:30	62.0	62.0	62.0	90	59.0	0	0	---	0.00	30.044 
01:35	62.0	62.0	62.0	90	59.0	0	0	---	0.00	30.044 
01:40	61.8	61.8	61.8	90	58.8	0	0	---	0.00	30.044 
01:45	61.8	61.8	61.8	91	59.1	0	0	---	0.00	30.047 
01:50	61.8	61.8	61.8	91	59.1	0	0	---	0.00	30.047 
01:55	61.8	61.8	61.8	91	59.1	0	0	---	0.00	30.047 
02:00	61.8	61.8	61.8	91	59.1	0	0	---	0.00	30.047 
02:05	61.8	61.8	61.8	91	59.1	0	0	---	0.00	30.047 
02:10	61.6	61.6	61.6	91	58.9	0	0	---	0.00	30.047 
02:15	61.6	61.6	61.6	91	58.9	0	0	---	0.00	30.046 
02:20	61.5	61.5	61.5	91	58.8	0	0	---	0.00	30.046 
02:25	61.5	61.5	61.5	91	58.8	0	0	---	0.00	30.046 
02:30	61.5	61.5	61.5	92	59.2	0	0	---	0.00	30.047 
02:35	61.5	61.5	61.5	92	59.2	0	0	---	0.00	30.047 
02:40	61.3	61.3	61.3	92	59.0	0	0	---	0.00	30.047 
02:45	61.3	61.3	61.3	92	59.0	0	0	---	0.00	30.044 
02:50	61.2	61.2	61.2	92	58.9	0	0	---	0.00	30.044 
02:55	61.0	61.0	61.0	92	58.7	0	0	---	0.00	30.044 
03:00	61.0	61.0	61.0	92	58.7	0	0	---	0.00	30.043 
03:05	60.9	60.9	60.9	92	58.6	0	0	---	0.00	30.043 
03:10	60.7	60.7	60.7	92	58.4	0	0	---	0.00	30.043 
03:15	60.5	60.5	60.5	92	58.2	0	0	---	0.00	30.041 
03:20	60.4	60.4	60.4	92	58.1	0	0	---	0.00	30.041 
03:25	60.2	60.2	60.2	92	57.9	0	0	---	0.00	30.041 
03:30	60.2	60.2	60.2	92	57.9	0	0	---	0.00	30.040 
03:35	60.1	60.1	60.1	92	57.8	0	0	---	0.00	30.040 
03:40	59.9	59.9	59.9	92	57.6	0	0	---	0.00	30.040 
03:45	59.9	59.9	59.9	92	57.6	0	0	---	0.00	30.042 
03:50	59.8	59.8	59.8	92	57.5	0	0	---	0.00	30.042 
03:55	59.8	59.8	59.8	92	57.5	0	0	---	0.00	30.042 
04:00	59.6	59.6	59.6	93	57.6	0	0	---	0.00	30.045 
04:05	59.6	59.6	59.6	93	57.6	0	0	---	0.00	30.045 
04:10	59.8	59.8	59.8	93	57.8	0	0	---	0.00	30.045 
04:15	59.6	59.6	59.6	93	57.6	0	0	---	0.00	30.047 
04:20	59.6	59.6	59.6	93	57.6	0	0	---	0.00	30.047 
04:25	59.5	59.5	59.5	93	57.5	0	0	---	0.00	30.047 
04:30	59.5	59.5	59.5	93	57.5	0	0	---	0.00	30.046 
04:35	59.3	59.3	59.3	93	57.3	0	0	---	0.00	30.046 
04:40	59.3	59.3	59.3	93	57.3	0	0	---	0.00	30.046 
04:45	59.2	59.2	59.2	93	57.2	0	0	---	0.00	30.046 
04:50	59.2	59.2	59.2	93	57.2	0	0	---	0.00	30.046 
04:55	59.0	59.0	59.0	93	57.0	0	0	---	0.00	30.046 
05:00	59.0	59.0	59.0	93	57.0	0	0	---	0.00	30.048 
05:05	59.0	59.0	59.0	94	57.3	0	0	---	0.00	30.048 
05:10	59.0	59.0	59.0	94	57.3	0	0	---	0.00	30.048 
05:15	59.0	59.0	59.0	94	57.3	0	0	---	0.00	30.048 
05:20	59.0	59.0	59.0	94	57.3	0	0	---	0.00	30.048 
05:25	59.0	59.0	59.0	94	57.3	0	0	---	0.00	30.048 
05:30	59.0	59.0	59.0	94	57.3	0	0	---	0.00	30.048 
05:35	59.0	59.0	59.0	94	57.3	0	0	---	0.00	30.048 
05:40	58.9	58.9	58.9	94	57.2	0	0	---	0.00	30.048 
05:45	58.9	58.9	58.9	94	57.2	0	0	---	0.00	30.052 
05:50	58.9	58.9	58.9	94	57.2	0	0	---	0.00	30.052 
05:55	58.9	58.9	58.9	94	57.2	0	0	---	0.00	30.052 
06:00	58.9	58.9	58.9	94	57.2	0	0	---	0.00	30.051 
06:05	58.9	58.9	58.9	94	57.2	0	0	---	0.00	30.051 
06:10	58.9	58.9	58.9	94	57.2	0	0	---	0.00	30.051 
06:15	58.9	58.9	58.9	94	57.2	0	0	---	0.00	30.054 
06:20	58.7	58.7	58.7	94	57.0	0	0	---	0.00	30.054 
06:25	58.7	58.7	58.7	94	57.0	0	0	---	0.00	30.054 
06:30	58.6	58.6	58.6	93	56.6	0	0	---	0.00	30.055 
06:35	58.6	58.6	58.6	93	56.6	0	0	---	0.00	30.055 
06:40	58.4	58.4	58.4	93	56.4	0	0	---	0.00	30.055 
06:45	58.4	58.4	58.4	93	56.4	0	0	---	0.00	30.059 
06:50	58.3	58.3	58.3	93	56.3	0	0	---	0.00	30.059 
06:55	58.3	58.3	58.3	93	56.3	0	0	---	0.00	30.059 
07:00	58.3	58.3	58.3	93	56.3	0	0	---	0.00	30.064 
07:05	58.1	58.1	58.1	93	56.1	0	0	---	0.00	30.064 
07:10	58.1	58.1	58.1	93	56.1	0	0	---	0.00	30.064 
07:15	58.1	58.1	58.1	93	56.1	0	0	---	0.00	30.071 
07:20	58.1	58.1	58.1	94	56.4	0	0	---	0.00	30.071 
07:25	58.0	58.0	58.0	94	56.3	0	0	---	0.00	30.071 
07:30	58.1	58.1	58.1	94	56.4	0	0	---	0.00	30.077 
07:35	58.3	58.3	58.3	94	56.6	0	0	---	0.00	30.077 
07:40	58.4	58.4	58.4	94	56.7	0	0	---	0.00	30.077 
07:45	58.6	58.6	58.6	94	56.9	0	0	---	0.00	30.076 
07:50	58.7	58.7	58.7	94	57.0	0	0	---	0.00	30.076 
07:55	59.0	59.0	59.0	94	57.3	0	0	---	0.00	30.076 
08:00	59.5	59.5	59.5	94	57.8	0	0	---	0.00	30.083 
08:05	59.9	59.9	59.9	95	58.5	0	1	315	0.00	30.083 
08:10	60.7	60.7	60.7	94	59.0	1	4	45	0.00	30.083 
08:15	61.3	61.3	61.3	94	59.6	0	2	45	0.00	30.087 
08:20	61.8	61.8	61.8	93	59.8	0	2	45	0.00	30.087 
08:25	62.4	62.4	62.4	92	60.0	1	4	45	0.00	30.087 
08:30	62.7	62.7	62.7	91	60.0	1	4	45	0.00	30.085 
08:35	63.2	63.2	63.2	90	60.2	0	0	---	0.00	30.085 
08:40	63.7	63.7	63.7	89	60.4	0	3	45	0.00	30.085 
08:45	63.9	63.9	63.9	88	60.3	1	3	45	0.00	30.084 
08:50	64.0	64.0	64.0	88	60.4	0	2	45	0.00	30.084 
08:55	64.3	64.3	64.3	88	60.7	0	1	45	0.00	30.084 
09:00	64.7	64.7	64.7	88	61.1	0	1	45	0.00	30.085 
09:05	65.0	65.0	65.0	88	61.4	0	1	45	0.00	30.085 
09:10	65.0	65.0	65.0	87	61.0	1	4	68	0.00	30.085 
09:15	65.0	65.0	65.0	86	60.7	1	3	90	0.00	30.091 
09:20	65.0	65.0	65.0	85	60.4	1	3	90	0.00	30.091 
09:25	65.2	65.2	65.2	85	60.6	0	1	90	0.00	30.091 
09:30	65.3	65.3	65.3	84	60.3	0	3	90	0.00	30.092 
09:35	65.5	65.5	65.5	84	60.5	1	3	90	0.00	30.092 
09:40	65.8	65.8	65.8	84	60.8	1	3	90	0.00	30.092 
09:45	66.1	66.1	66.1	84	61.1	0	2	90	0.00	30.087 
09:50	66.6	66.6	66.6	84	61.6	0	1	90	0.00	30.087 
09:55	67.1	67.1	67.1	82	61.4	0	3	90	0.00	30.087 
10:00	67.3	67.3	67.3	82	61.6	1	3	90	0.00	30.092 
10:05	67.6	67.6	67.6	82	61.9	1	2	90	0.00	30.092 
10:10	68.1	68.1	68.1	81	62.0	1	3	90	0.00	30.092 
10:15	68.6	68.6	68.6	81	62.5	1	3	90	0.00	30.093 
10:20	69.4	69.4	69.4	79	62.6	0	1	90	0.00	30.093 
10:25	70.4	70.4	70.4	76	62.5	0	2	90	0.00	30.093 
10:30	71.5	71.5	71.5	73	62.4	0	3	90	0.00	30.094 
10:35	72.0	72.0	72.0	72	62.5	1	4	90	0.00	30.094 
10:40	72.0	72.0	72.0	72	62.5	2	4	90	0.00	30.094 
10:45	72.3	72.3	72.3	72	62.8	0	2	90	0.00	30.093 
10:50	73.2	73.2	73.2	69	62.4	1	3	90	0.00	30.093 
10:55	73.7	73.7	73.7	69	62.9	1	5	90	0.00	30.093 
11:00	74.0	74.0	74.0	67	62.3	0	3	90	0.00	30.091 
11:05	74.9	74.9	74.9	65	62.3	0	2	90	0.00	30.091 
11:10	75.8	75.8	77.7	65	63.2	0	2	90	0.00	30.091 
11:15	76.5	76.5	78.4	59	61.1	0	3	90	0.00	30.093 
11:20	77.2	77.2	78.9	58	61.3	0	2	90	0.00	30.093 
11:25	77.6	77.6	79.2	57	61.1	0	1	90	0.00	30.093 
11:30	77.6	77.6	79.2	55	60.1	1	3	90	0.00	30.093 
11:35	77.4	77.4	79.0	56	60.5	1	4	90	0.00	30.093 
11:40	77.6	77.6	79.2	57	61.1	0	3	90	0.00	30.093 
11:45	77.7	77.7	79.1	51	58.1	1	3	90	0.00	30.092 
11:50	78.1	78.1	79.3	49	57.4	1	3	90	0.00	30.092 
11:55	78.3	78.3	79.4	50	58.1	1	3	90	0.00	30.092 
12:00	78.3	78.3	79.4	50	58.1	1	3	90	0.00	30.090 
12:05	78.3	78.3	79.4	50	58.1	1	3	90	0.00	30.090 
12:10	78.3	78.3	79.4	49	57.5	1	4	90	0.00	30.090 
12:15	78.1	78.1	79.2	48	56.8	1	3	90	0.00	30.092 
12:20	77.9	77.9	79.1	48	56.6	0	3	90	0.00	30.092 
12:25	77.4	77.4	78.9	51	57.8	1	4	90	0.00	30.092 
12:30	77.2	77.2	78.6	46	54.8	0	1	90	0.00	30.090 
12:35	77.6	77.6	78.9	48	56.3	0	1	90	0.00	30.090 
12:40	78.1	78.1	79.0	44	54.4	1	4	90	0.00	30.090 
12:45	78.6	78.6	79.4	46	56.1	1	2	90	0.00	30.087 
12:50	78.6	78.6	79.3	44	54.8	1	5	270	0.00	30.087 
12:55	79.0	79.0	79.5	43	54.6	0	3	270	0.00	30.087 
13:00	79.2	79.2	79.8	46	56.6	0	2	270	0.00	30.082 
13:05	79.4	79.4	80.1	48	58.0	0	3	270	0.00	30.082 
13:10	79.6	79.6	79.8	42	54.5	1	4	158	0.00	30.082 
13:15	79.4	79.4	79.9	45	56.2	0	2	112	0.00	30.080 
13:20	79.0	79.0	79.7	46	56.4	1	3	22	0.00	30.080 
13:25	79.6	79.6	80.3	48	58.2	0	1	22	0.00	30.080 
13:30	79.9	79.9	80.2	44	56.0	1	4	22	0.00	30.079 
13:35	79.6	79.6	79.9	43	55.1	0	2	90	0.00	30.079 
13:40	78.5	78.5	79.2	43	54.1	0	2	338	0.00	30.079 
13:45	78.5	78.5	79.2	44	54.7	0	2	338	0.00	30.080 
13:50	79.0	79.0	79.7	46	56.4	0	2	338	0.00	30.080 
13:55	78.8	78.8	79.4	44	55.0	2	5	292	0.00	30.080 
14:00	79.2	79.2	79.6	43	54.7	0	2	90	0.00	30.075 
14:05	79.2	79.2	79.7	44	55.4	1	2	90	0.00	30.075 
14:10	79.9	79.9	80.1	43	55.4	0	1	90	0.00	30.075 
14:15	80.3	80.3	80.5	44	56.4	1	3	292	0.00	30.068 
14:20	80.5	80.5	80.7	45	57.2	1	4	135	0.00	30.068 
14:25	80.5	80.5	80.7	45	57.2	1	4	112	0.00	30.068 
14:30	80.5	80.5	80.8	46	57.8	0	2	292	0.00	30.066 
14:35	80.7	80.7	80.7	43	56.1	1	4	68	0.00	30.066 
14:40	80.7	80.7	80.7	43	56.1	1	4	90	0.00	30.066 
14:45	80.5	80.5	80.6	43	55.9	1	3	90	0.00	30.064 
14:50	80.7	80.7	80.4	40	54.1	1	4	90	0.00	30.064 
14:55	80.9	80.9	80.9	43	56.3	0	2	90	0.00	30.064 
15:00	81.2	81.2	81.1	43	56.5	1	3	90	0.00	30.058 
15:05	81.2	81.2	81.2	44	57.2	1	3	90	0.00	30.058 
15:10	81.2	81.2	81.2	44	57.2	0	2	158	0.00	30.058 
15:15	80.9	80.9	81.0	44	56.9	1	4	112	0.00	30.050 
15:20	80.7	80.7	80.7	43	56.1	0	3	112	0.00	30.050 
15:25	80.7	80.7	80.6	42	55.4	1	3	112	0.00	30.050 
15:30	80.9	80.9	80.5	39	53.6	0	2	112	0.00	30.049 
15:35	81.2	81.2	80.9	41	55.2	0	2	112	0.00	30.049 
15:40	81.4	81.4	80.8	38	53.3	1	4	112	0.00	30.049 
15:45	81.4	81.4	81.2	42	56.1	1	4	112	0.00	30.040 
15:50	81.1	81.1	81.0	43	56.5	0	3	112	0.00	30.040 
15:55	80.9	80.9	80.8	42	55.6	1	4	112	0.00	30.040 
16:00	80.7	80.7	80.9	45	57.4	0	2	112	0.00	30.039 
16:05	80.9	80.9	80.5	39	53.6	0	1	112	0.00	30.039 
16:10	81.2	81.2	80.9	41	55.2	1	3	112	0.00	30.039 
16:15	81.1	81.1	80.9	42	55.8	1	3	112	0.00	30.034 
16:20	80.9	80.9	80.9	43	56.3	2	4	112	0.00	30.034 
16:25	80.7	80.7	80.4	40	54.1	1	3	90	0.00	30.034 
16:30	80.5	80.5	80.3	40	53.9	0	2	90	0.00	30.034 
16:35	80.7	80.7	80.7	43	56.1	1	4	90	0.00	30.034 
16:40	80.3	80.3	80.4	43	55.7	1	4	90	0.00	30.034 
16:45	80.1	80.1	80.2	42	54.9	1	4	90	0.00	30.027 
16:50	80.3	80.3	80.4	43	55.7	2	5	90	0.00	30.027 
16:55	80.1	80.1	80.2	42	54.9	1	4	90	0.00	30.027 
17:00	80.3	80.3	80.5	44	56.4	0	3	90	0.00	30.022 
17:05	80.3	80.3	80.5	44	56.4	1	6	90	0.00	30.022 
17:10	80.1	80.1	80.3	44	56.2	1	4	135	0.00	30.022 
17:15	79.9	79.9	80.0	42	54.7	1	3	135	0.00	30.021 
17:20	79.9	79.9	80.1	43	55.4	0	1	135	0.00	30.021 
17:25	80.1	80.1	80.3	44	56.2	1	3	135	0.00	30.021 
17:30	79.8	79.8	80.0	43	55.3	2	5	112	0.00	30.021 
17:35	79.4	79.4	79.8	43	54.9	3	9	90	0.00	30.021 
17:40	79.4	79.4	79.8	43	54.9	0	3	90	0.00	30.021 
17:45	79.4	79.4	80.0	46	56.8	0	1	90	0.00	30.018 
17:50	79.6	79.6	80.1	46	57.0	1	4	90	0.00	30.018 
17:55	79.4	79.4	79.8	44	55.6	1	4	90	0.00	30.018 
18:00	79.4	79.4	79.8	44	55.6	2	4	90	0.00	30.019 
18:05	79.0	79.0	79.6	44	55.2	1	4	90	0.00	30.019 
18:10	79.0	79.0	79.7	46	56.4	0	2	90	0.00	30.019 
18:15	79.2	79.2	79.8	45	56.0	1	2	90	0.00	30.021 
18:20	79.2	79.2	79.7	44	55.4	0	2	90	0.00	30.021 
18:25	78.8	78.8	79.4	44	55.0	2	5	90	0.00	30.021 
18:30	78.6	78.6	79.3	44	54.8	1	3	90	0.00	30.020 
18:35	78.5	78.5	79.3	45	55.4	0	1	90	0.00	30.020 
18:40	78.5	78.5	79.3	45	55.4	1	2	90	0.00	30.020 
18:45	78.5	78.5	79.4	46	56.0	0	2	90	0.00	30.021 
18:50	78.5	78.5	79.4	46	56.0	0	1	90	0.00	30.021 
18:55	78.3	78.3	79.2	45	55.2	1	3	90	0.00	30.021 
19:00	78.1	78.1	79.0	45	55.0	1	2	90	0.00	30.020 
19:05	78.1	78.1	79.1	46	55.6	0	2	90	0.00	30.020 
19:10	77.9	77.9	79.0	47	56.0	0	2	90	0.00	30.020 
19:15	77.7	77.7	78.9	46	55.2	0	1	90	0.00	30.013 
19:20	77.7	77.7	78.9	46	55.2	0	2	90	0.00	30.013 
19:25	77.6	77.6	78.8	47	55.8	0	1	90	0.00	30.013 
19:30	77.4	77.4	78.8	48	56.1	0	1	90	0.00	30.009 
19:35	77.2	77.2	78.7	48	56.0	0	0	---	0.00	30.009 
19:40	77.0	77.0	78.6	49	56.4	0	0	---	0.00	30.009 
19:45	76.8	76.8	78.5	49	56.2	0	0	---	0.00	30.008 
19:50	76.5	76.5	78.3	49	55.9	0	0	---	0.00	30.008 
19:55	76.1	76.1	78.1	51	56.6	0	1	90	0.00	30.008 
20:00	75.8	75.8	78.0	53	57.4	0	0	---	0.00	30.009 
20:05	75.3	75.3	77.7	54	57.5	0	0	---	0.00	30.009 
20:10	74.9	74.9	74.9	55	57.6	0	0	---	0.00	30.009 
20:15	74.6	74.6	74.6	55	57.3	0	0	---	0.00	30.005 
20:20	74.0	74.0	74.0	56	57.3	0	0	---	0.00	30.005 
20:25	73.7	73.7	73.7	56	57.0	0	0	---	0.00	30.005 
20:30	73.2	73.2	73.2	57	57.0	0	0	---	0.00	30.014 
20:35	72.8	72.8	72.8	58	57.1	0	0	---	0.00	30.014 
20:40	72.5	72.5	72.5	59	57.3	0	0	---	0.00	30.014 
20:45	72.0	72.0	72.0	60	57.3	0	0	---	0.00	30.020 
20:50	71.6	71.6	71.6	61	57.4	0	0	---	0.00	30.020 
20:55	71.1	71.1	71.1	62	57.4	0	0	---	0.00	30.020 
21:00	70.8	70.8	70.8	63	57.6	0	0	---	0.00	30.021 
21:05	70.4	70.4	70.4	64	57.6	0	0	---	0.00	30.021 
21:10	70.1	70.1	70.1	64	57.3	0	0	---	0.00	30.021 
21:15	69.6	69.6	69.6	65	57.3	0	0	---	0.00	30.024 
21:20	69.3	69.3	69.3	66	57.4	0	0	---	0.00	30.024 
21:25	68.9	68.9	68.9	67	57.5	0	0	---	0.00	30.024 
21:30	68.8	68.8	68.8	67	57.4	0	0	---	0.00	30.028 
21:35	68.4	68.4	68.4	68	57.4	0	0	---	0.00	30.028 
21:40	68.3	68.3	68.3	69	57.7	0	0	---	0.00	30.028 
21:45	67.9	67.9	67.9	70	57.7	0	0	---	0.00	30.033 
21:50	67.6	67.6	67.6	71	57.9	0	0	---	0.00	30.033 
21:55	67.3	67.3	67.3	71	57.6	0	0	---	0.00	30.033 
22:00	67.1	67.1	67.1	72	57.8	0	0	---	0.00	30.038 
22:05	66.8	66.8	66.8	73	57.9	0	0	---	0.00	30.038 
22:10	66.4	66.4	66.4	73	57.5	0	0	---	0.00	30.038 
22:15	66.3	66.3	66.3	74	57.8	0	0	---	0.00	30.034 
22:20	66.1	66.1	66.1	75	57.9	0	0	---	0.00	30.034 
22:25	66.0	66.0	66.0	76	58.2	0	0	---	0.00	30.034 
22:30	65.8	65.8	65.8	76	58.0	0	0	---	0.00	30.035 
22:35	65.6	65.6	65.6	77	58.2	0	0	---	0.00	30.035 
22:40	65.3	65.3	65.3	77	57.9	0	0	---	0.00	30.035 
22:45	65.2	65.2	65.2	78	58.2	0	0	---	0.00	30.036 
22:50	65.0	65.0	65.0	79	58.3	0	0	---	0.00	30.036 
22:55	64.7	64.7	64.7	79	58.0	0	0	---	0.00	30.036 
23:00	64.5	64.5	64.5	80	58.2	0	0	---	0.00	30.037 
23:05	64.3	64.3	64.3	80	58.0	0	0	---	0.00	30.037 
23:10	64.2	64.2	64.2	81	58.2	0	0	---	0.00	30.037 
23:15	64.0	64.0	64.0	81	58.0	0	0	---	0.00	30.034 
23:20	63.9	63.9	63.9	82	58.3	0	0	---	0.00	30.034 
23:25	63.9	63.9	63.9	83	58.6	0	0	---	0.00	30.034 
23:30	63.7	63.7	63.7	83	58.4	0	0	---	0.00	30.035 
23:35	63.5	63.5	63.5	84	58.6	0	0	---	0.00	30.035 
23:40	63.4	63.4	63.4	84	58.5	0	0	---	0.00	30.035 
23:45	63.2	63.2	63.2	85	58.6	0	0	---	0.00	30.037 
23:50	63.1	63.1	63.1	85	58.5	0	0	---	0.00	30.037 
23:55	62.9	62.9	62.9	85	58.3	0	0	---	0.00	30.037 

CoCoRaHS
IN-AL-39
A2 Web Hosting
Creative Commons License
GoDaddy
search engine by freefind advanced

loaded 2018-11-20 06:51:55 • last modified 2010-11-18 10:43:29
Privacy PolicyDisclaimer
• wx.awcolley.com is powered by PmWiki v.2002016 •
• all content (unless otherwise noted) © 2018 A W Colley